sensor_id;sensor_type;location;lat;lon;timestamp;P1;durP1;ratioP1;P2;durP2;ratioP2
48522;SDS011;34315;50.150;11.070;2023-04-25T00:03:39;9.43;;;4.53;;
48522;SDS011;34315;50.150;11.070;2023-04-25T00:08:41;8.65;;;4.57;;
48522;SDS011;34315;50.150;11.070;2023-04-25T00:13:42;8.02;;;4.57;;
48522;SDS011;34315;50.150;11.070;2023-04-25T00:18:43;6.13;;;4.22;;
48522;SDS011;34315;50.150;11.070;2023-04-25T00:23:46;7.90;;;3.58;;
48522;SDS011;34315;50.150;11.070;2023-04-25T00:28:48;6.38;;;3.63;;
48522;SDS011;34315;50.150;11.070;2023-04-25T00:33:49;5.18;;;3.50;;
48522;SDS011;34315;50.150;11.070;2023-04-25T00:38:50;5.03;;;3.20;;
48522;SDS011;34315;50.150;11.070;2023-04-25T00:43:51;5.15;;;3.25;;
48522;SDS011;34315;50.150;11.070;2023-04-25T00:48:52;5.95;;;3.70;;
48522;SDS011;34315;50.150;11.070;2023-04-25T00:53:53;6.13;;;3.70;;
48522;SDS011;34315;50.150;11.070;2023-04-25T00:58:55;6.72;;;3.50;;
48522;SDS011;34315;50.150;11.070;2023-04-25T01:03:58;6.45;;;3.95;;
48522;SDS011;34315;50.150;11.070;2023-04-25T01:08:59;7.90;;;4.18;;
48522;SDS011;34315;50.150;11.070;2023-04-25T01:14:00;6.22;;;3.40;;
48522;SDS011;34315;50.150;11.070;2023-04-25T01:19:05;7.68;;;3.85;;
48522;SDS011;34315;50.150;11.070;2023-04-25T01:24:12;6.78;;;3.80;;
48522;SDS011;34315;50.150;11.070;2023-04-25T01:29:13;6.78;;;3.85;;
48522;SDS011;34315;50.150;11.070;2023-04-25T01:34:15;5.72;;;3.70;;
48522;SDS011;34315;50.150;11.070;2023-04-25T01:39:16;7.07;;;3.97;;
48522;SDS011;34315;50.150;11.070;2023-04-25T01:44:19;6.35;;;3.97;;
48522;SDS011;34315;50.150;11.070;2023-04-25T01:49:20;6.20;;;3.70;;
48522;SDS011;34315;50.150;11.070;2023-04-25T01:54:21;7.50;;;4.25;;
48522;SDS011;34315;50.150;11.070;2023-04-25T01:59:22;7.60;;;4.40;;
48522;SDS011;34315;50.150;11.070;2023-04-25T02:04:44;7.38;;;3.85;;
48522;SDS011;34315;50.150;11.070;2023-04-25T02:09:46;5.25;;;3.70;;
48522;SDS011;34315;50.150;11.070;2023-04-25T02:14:48;6.30;;;4.10;;
48522;SDS011;34315;50.150;11.070;2023-04-25T02:19:53;6.55;;;3.92;;
48522;SDS011;34315;50.150;11.070;2023-04-25T02:24:54;7.25;;;4.07;;
48522;SDS011;34315;50.150;11.070;2023-04-25T02:29:55;6.45;;;3.92;;
48522;SDS011;34315;50.150;11.070;2023-04-25T02:34:56;8.35;;;3.95;;
48522;SDS011;34315;50.150;11.070;2023-04-25T02:40:01;6.20;;;4.53;;
48522;SDS011;34315;50.150;11.070;2023-04-25T02:45:03;6.82;;;4.13;;
48522;SDS011;34315;50.150;11.070;2023-04-25T02:50:05;7.35;;;5.00;;
48522;SDS011;34315;50.150;11.070;2023-04-25T02:55:07;6.38;;;4.43;;
48522;SDS011;34315;50.150;11.070;2023-04-25T03:00:09;6.60;;;4.18;;
48522;SDS011;34315;50.150;11.070;2023-04-25T03:05:12;6.15;;;4.28;;
48522;SDS011;34315;50.150;11.070;2023-04-25T03:10:13;6.90;;;4.55;;
48522;SDS011;34315;50.150;11.070;2023-04-25T03:15:15;6.18;;;4.18;;
48522;SDS011;34315;50.150;11.070;2023-04-25T03:20:17;7.15;;;4.38;;
48522;SDS011;34315;50.150;11.070;2023-04-25T03:25:19;8.05;;;4.80;;
48522;SDS011;34315;50.150;11.070;2023-04-25T03:30:20;7.72;;;4.80;;
48522;SDS011;34315;50.150;11.070;2023-04-25T03:35:22;8.07;;;4.90;;
48522;SDS011;34315;50.150;11.070;2023-04-25T03:40:25;9.65;;;5.68;;
48522;SDS011;34315;50.150;11.070;2023-04-25T03:45:46;8.52;;;5.65;;
48522;SDS011;34315;50.150;11.070;2023-04-25T03:50:47;8.80;;;4.97;;
48522;SDS011;34315;50.150;11.070;2023-04-25T03:55:48;8.27;;;4.88;;
48522;SDS011;34315;50.150;11.070;2023-04-25T04:00:50;10.73;;;5.13;;
48522;SDS011;34315;50.150;11.070;2023-04-25T04:05:53;11.68;;;5.35;;
48522;SDS011;34315;50.150;11.070;2023-04-25T04:10:55;7.72;;;5.13;;
48522;SDS011;34315;50.150;11.070;2023-04-25T04:15:58;8.48;;;5.82;;
48522;SDS011;34315;50.150;11.070;2023-04-25T04:20:59;9.02;;;4.65;;
48522;SDS011;34315;50.150;11.070;2023-04-25T04:26:03;5.47;;;3.23;;
48522;SDS011;34315;50.150;11.070;2023-04-25T04:31:41;4.28;;;2.67;;
48522;SDS011;34315;50.150;11.070;2023-04-25T04:36:42;5.60;;;2.92;;
48522;SDS011;34315;50.150;11.070;2023-04-25T04:41:44;5.82;;;3.20;;
48522;SDS011;34315;50.150;11.070;2023-04-25T04:46:49;6.82;;;3.13;;
48522;SDS011;34315;50.150;11.070;2023-04-25T04:52:09;6.85;;;3.72;;
48522;SDS011;34315;50.150;11.070;2023-04-25T04:57:34;5.40;;;3.40;;
48522;SDS011;34315;50.150;11.070;2023-04-25T05:02:51;6.88;;;4.15;;
48522;SDS011;34315;50.150;11.070;2023-04-25T05:08:08;6.38;;;4.22;;
48522;SDS011;34315;50.150;11.070;2023-04-25T05:13:27;7.13;;;3.80;;
48522;SDS011;34315;50.150;11.070;2023-04-25T05:18:47;6.75;;;4.40;;
48522;SDS011;34315;50.150;11.070;2023-04-25T05:24:27;8.25;;;4.60;;
48522;SDS011;34315;50.150;11.070;2023-04-25T05:29:59;8.18;;;4.75;;
48522;SDS011;34315;50.150;11.070;2023-04-25T05:35:05;9.25;;;5.00;;
48522;SDS011;34315;50.150;11.070;2023-04-25T05:40:14;6.68;;;4.20;;
48522;SDS011;34315;50.150;11.070;2023-04-25T05:45:18;9.30;;;4.70;;
48522;SDS011;34315;50.150;11.070;2023-04-25T05:50:43;7.63;;;4.55;;
48522;SDS011;34315;50.150;11.070;2023-04-25T05:55:56;9.25;;;4.93;;
48522;SDS011;34315;50.150;11.070;2023-04-25T06:01:01;7.47;;;4.90;;
48522;SDS011;34315;50.150;11.070;2023-04-25T06:06:03;9.07;;;5.15;;
48522;SDS011;34315;50.150;11.070;2023-04-25T06:11:04;6.88;;;4.28;;
48522;SDS011;34315;50.150;11.070;2023-04-25T06:16:06;7.63;;;4.95;;
48522;SDS011;34315;50.150;11.070;2023-04-25T06:21:08;7.47;;;4.63;;
48522;SDS011;34315;50.150;11.070;2023-04-25T06:26:09;8.90;;;5.55;;
48522;SDS011;34315;50.150;11.070;2023-04-25T06:31:13;8.43;;;5.15;;
48522;SDS011;34315;50.150;11.070;2023-04-25T06:36:16;7.68;;;4.70;;
48522;SDS011;34315;50.150;11.070;2023-04-25T06:41:20;10.90;;;4.60;;
48522;SDS011;34315;50.150;11.070;2023-04-25T06:46:22;7.28;;;4.70;;
48522;SDS011;34315;50.150;11.070;2023-04-25T06:51:24;7.15;;;4.07;;
48522;SDS011;34315;50.150;11.070;2023-04-25T06:56:28;9.43;;;4.23;;
48522;SDS011;34315;50.150;11.070;2023-04-25T07:01:45;7.80;;;4.07;;
48522;SDS011;34315;50.150;11.070;2023-04-25T07:06:51;9.20;;;4.47;;
48522;SDS011;34315;50.150;11.070;2023-04-25T07:11:57;8.75;;;4.10;;
48522;SDS011;34315;50.150;11.070;2023-04-25T07:16:58;8.07;;;3.95;;
48522;SDS011;34315;50.150;11.070;2023-04-25T07:22:01;6.38;;;3.97;;
48522;SDS011;34315;50.150;11.070;2023-04-25T07:27:03;7.95;;;4.82;;
48522;SDS011;34315;50.150;11.070;2023-04-25T07:32:26;7.10;;;4.30;;
48522;SDS011;34315;50.150;11.070;2023-04-25T07:37:28;7.28;;;3.55;;
48522;SDS011;34315;50.150;11.070;2023-04-25T07:42:50;6.10;;;2.88;;
48522;SDS011;34315;50.150;11.070;2023-04-25T07:47:57;5.57;;;2.90;;
48522;SDS011;34315;50.150;11.070;2023-04-25T07:52:58;5.20;;;2.75;;
48522;SDS011;34315;50.150;11.070;2023-04-25T07:58:08;5.93;;;2.08;;
48522;SDS011;34315;50.150;11.070;2023-04-25T08:03:12;6.73;;;2.63;;
48522;SDS011;34315;50.150;11.070;2023-04-25T08:08:14;5.53;;;3.08;;
48522;SDS011;34315;50.150;11.070;2023-04-25T08:13:15;4.85;;;2.97;;
48522;SDS011;34315;50.150;11.070;2023-04-25T08:18:17;6.15;;;3.30;;
48522;SDS011;34315;50.150;11.070;2023-04-25T08:23:19;5.75;;;3.05;;
48522;SDS011;34315;50.150;11.070;2023-04-25T08:28:35;5.88;;;2.97;;
48522;SDS011;34315;50.150;11.070;2023-04-25T08:33:37;5.60;;;3.05;;
48522;SDS011;34315;50.150;11.070;2023-04-25T08:38:48;5.22;;;2.75;;
48522;SDS011;34315;50.150;11.070;2023-04-25T08:48:54;4.15;;;2.30;;
48522;SDS011;34315;50.150;11.070;2023-04-25T08:54:10;5.72;;;2.42;;
48522;SDS011;34315;50.150;11.070;2023-04-25T08:59:13;7.10;;;2.88;;
48522;SDS011;34315;50.150;11.070;2023-04-25T09:04:15;6.05;;;2.40;;
48522;SDS011;34315;50.150;11.070;2023-04-25T09:09:16;5.25;;;2.40;;
48522;SDS011;34315;50.150;11.070;2023-04-25T09:14:20;6.03;;;2.50;;
48522;SDS011;34315;50.150;11.070;2023-04-25T09:19:48;5.53;;;1.92;;
48522;SDS011;34315;50.150;11.070;2023-04-25T09:25:12;5.40;;;1.88;;
48522;SDS011;34315;50.150;11.070;2023-04-25T09:30:18;6.75;;;1.88;;
48522;SDS011;34315;50.150;11.070;2023-04-25T09:35:35;2.63;;;1.45;;
48522;SDS011;34315;50.150;11.070;2023-04-25T09:40:54;2.75;;;1.60;;
48522;SDS011;34315;50.150;11.070;2023-04-25T09:46:10;3.38;;;1.80;;
48522;SDS011;34315;50.150;11.070;2023-04-25T09:51:15;4.97;;;1.70;;
48522;SDS011;34315;50.150;11.070;2023-04-25T09:56:19;6.00;;;1.58;;
48522;SDS011;34315;50.150;11.070;2023-04-25T10:01:23;2.75;;;1.15;;
48522;SDS011;34315;50.150;11.070;2023-04-25T10:06:37;2.60;;;1.35;;
48522;SDS011;34315;50.150;11.070;2023-04-25T10:11:39;4.82;;;1.40;;
48522;SDS011;34315;50.150;11.070;2023-04-25T10:16:43;2.60;;;1.25;;
48522;SDS011;34315;50.150;11.070;2023-04-25T10:21:46;1.70;;;1.25;;
48522;SDS011;34315;50.150;11.070;2023-04-25T10:26:51;2.50;;;1.27;;
48522;SDS011;34315;50.150;11.070;2023-04-25T10:31:52;2.58;;;1.30;;
48522;SDS011;34315;50.150;11.070;2023-04-25T10:36:53;2.88;;;1.52;;
48522;SDS011;34315;50.150;11.070;2023-04-25T10:41:55;2.53;;;1.50;;
48522;SDS011;34315;50.150;11.070;2023-04-25T10:46:58;4.15;;;1.40;;
48522;SDS011;34315;50.150;11.070;2023-04-25T10:57:43;4.90;;;1.65;;
48522;SDS011;34315;50.150;11.070;2023-04-25T11:02:47;2.75;;;1.50;;
48522;SDS011;34315;50.150;11.070;2023-04-25T11:07:52;3.45;;;1.58;;
48522;SDS011;34315;50.150;11.070;2023-04-25T11:12:57;2.53;;;1.40;;
48522;SDS011;34315;50.150;11.070;2023-04-25T11:17:58;2.55;;;1.52;;
48522;SDS011;34315;50.150;11.070;2023-04-25T11:23:00;3.42;;;1.58;;
48522;SDS011;34315;50.150;11.070;2023-04-25T11:28:01;3.10;;;1.65;;
48522;SDS011;34315;50.150;11.070;2023-04-25T11:33:03;5.32;;;1.90;;
48522;SDS011;34315;50.150;11.070;2023-04-25T11:38:04;3.55;;;2.05;;
48522;SDS011;34315;50.150;11.070;2023-04-25T11:43:06;5.07;;;1.95;;
48522;SDS011;34315;50.150;11.070;2023-04-25T11:48:07;6.40;;;2.08;;
48522;SDS011;34315;50.150;11.070;2023-04-25T11:53:09;2.65;;;1.95;;
48522;SDS011;34315;50.150;11.070;2023-04-25T11:58:10;4.32;;;2.00;;
48522;SDS011;34315;50.150;11.070;2023-04-25T12:03:14;3.50;;;1.63;;
48522;SDS011;34315;50.150;11.070;2023-04-25T12:08:15;3.15;;;2.00;;
48522;SDS011;34315;50.150;11.070;2023-04-25T12:13:17;2.35;;;1.38;;
48522;SDS011;34315;50.150;11.070;2023-04-25T12:18:20;3.40;;;1.67;;
48522;SDS011;34315;50.150;11.070;2023-04-25T12:23:26;2.93;;;1.77;;
48522;SDS011;34315;50.150;11.070;2023-04-25T12:28:28;3.75;;;1.50;;
48522;SDS011;34315;50.150;11.070;2023-04-25T12:33:34;6.95;;;2.15;;
48522;SDS011;34315;50.150;11.070;2023-04-25T12:38:40;4.25;;;1.58;;
48522;SDS011;34315;50.150;11.070;2023-04-25T12:43:42;6.05;;;1.60;;
48522;SDS011;34315;50.150;11.070;2023-04-25T12:48:43;3.15;;;1.60;;
48522;SDS011;34315;50.150;11.070;2023-04-25T12:53:44;4.30;;;1.77;;
48522;SDS011;34315;50.150;11.070;2023-04-25T12:58:45;3.00;;;1.38;;
48522;SDS011;34315;50.150;11.070;2023-04-25T13:03:48;4.28;;;1.70;;
48522;SDS011;34315;50.150;11.070;2023-04-25T13:08:49;4.30;;;1.63;;
48522;SDS011;34315;50.150;11.070;2023-04-25T13:13:50;4.03;;;2.10;;
48522;SDS011;34315;50.150;11.070;2023-04-25T13:18:52;5.47;;;1.58;;
48522;SDS011;34315;50.150;11.070;2023-04-25T13:23:53;4.22;;;1.52;;
48522;SDS011;34315;50.150;11.070;2023-04-25T13:28:54;3.63;;;1.60;;
48522;SDS011;34315;50.150;11.070;2023-04-25T13:33:55;3.40;;;1.80;;
48522;SDS011;34315;50.150;11.070;2023-04-25T13:38:56;5.45;;;1.80;;
48522;SDS011;34315;50.150;11.070;2023-04-25T13:43:57;4.47;;;2.03;;
48522;SDS011;34315;50.150;11.070;2023-04-25T13:48:58;3.63;;;2.00;;
48522;SDS011;34315;50.150;11.070;2023-04-25T13:53:59;3.72;;;1.70;;
48522;SDS011;34315;50.150;11.070;2023-04-25T13:59:01;4.15;;;1.60;;
48522;SDS011;34315;50.150;11.070;2023-04-25T14:04:02;3.72;;;1.80;;
48522;SDS011;34315;50.150;11.070;2023-04-25T14:09:04;7.72;;;2.03;;
48522;SDS011;34315;50.150;11.070;2023-04-25T14:14:07;7.88;;;2.17;;
48522;SDS011;34315;50.150;11.070;2023-04-25T14:19:08;4.90;;;2.38;;
48522;SDS011;34315;50.150;11.070;2023-04-25T14:24:09;5.13;;;2.30;;
48522;SDS011;34315;50.150;11.070;2023-04-25T14:29:11;6.32;;;2.42;;
48522;SDS011;34315;50.150;11.070;2023-04-25T14:34:14;6.68;;;3.10;;
48522;SDS011;34315;50.150;11.070;2023-04-25T14:39:15;6.57;;;2.10;;
48522;SDS011;34315;50.150;11.070;2023-04-25T14:44:17;6.05;;;2.13;;
48522;SDS011;34315;50.150;11.070;2023-04-25T14:49:18;5.82;;;2.30;;
48522;SDS011;34315;50.150;11.070;2023-04-25T14:54:19;5.80;;;2.10;;
48522;SDS011;34315;50.150;11.070;2023-04-25T14:59:20;7.88;;;2.72;;
48522;SDS011;34315;50.150;11.070;2023-04-25T15:04:21;5.82;;;2.20;;
48522;SDS011;34315;50.150;11.070;2023-04-25T15:09:22;4.90;;;1.95;;
48522;SDS011;34315;50.150;11.070;2023-04-25T15:14:24;3.72;;;1.73;;
48522;SDS011;34315;50.150;11.070;2023-04-25T15:19:26;6.30;;;1.92;;
48522;SDS011;34315;50.150;11.070;2023-04-25T15:24:27;5.15;;;1.92;;
48522;SDS011;34315;50.150;11.070;2023-04-25T15:29:28;5.78;;;2.20;;
48522;SDS011;34315;50.150;11.070;2023-04-25T15:34:29;5.88;;;2.25;;
48522;SDS011;34315;50.150;11.070;2023-04-25T15:39:30;5.50;;;1.88;;
48522;SDS011;34315;50.150;11.070;2023-04-25T15:44:31;5.95;;;2.40;;
48522;SDS011;34315;50.150;11.070;2023-04-25T15:49:32;6.18;;;1.90;;
48522;SDS011;34315;50.150;11.070;2023-04-25T15:54:33;6.88;;;2.17;;
48522;SDS011;34315;50.150;11.070;2023-04-25T15:59:35;7.10;;;1.77;;
48522;SDS011;34315;50.150;11.070;2023-04-25T16:04:36;7.30;;;2.30;;
48522;SDS011;34315;50.150;11.070;2023-04-25T16:09:37;7.65;;;2.40;;
48522;SDS011;34315;50.150;11.070;2023-04-25T16:14:39;5.80;;;2.05;;
48522;SDS011;34315;50.150;11.070;2023-04-25T16:19:40;6.75;;;2.17;;
48522;SDS011;34315;50.150;11.070;2023-04-25T16:24:41;6.93;;;2.28;;
48522;SDS011;34315;50.150;11.070;2023-04-25T16:29:43;4.93;;;1.88;;
48522;SDS011;34315;50.150;11.070;2023-04-25T16:34:44;6.57;;;1.88;;
48522;SDS011;34315;50.150;11.070;2023-04-25T16:39:45;5.20;;;1.80;;
48522;SDS011;34315;50.150;11.070;2023-04-25T16:44:47;4.85;;;2.03;;
48522;SDS011;34315;50.150;11.070;2023-04-25T16:49:48;7.95;;;2.40;;
48522;SDS011;34315;50.150;11.070;2023-04-25T16:54:50;4.18;;;2.00;;
48522;SDS011;34315;50.150;11.070;2023-04-25T16:59:51;5.20;;;1.75;;
48522;SDS011;34315;50.150;11.070;2023-04-25T17:04:52;7.03;;;2.50;;
48522;SDS011;34315;50.150;11.070;2023-04-25T17:09:53;9.45;;;2.05;;
48522;SDS011;34315;50.150;11.070;2023-04-25T17:14:54;8.35;;;2.53;;
48522;SDS011;34315;50.150;11.070;2023-04-25T17:19:56;7.55;;;2.10;;
48522;SDS011;34315;50.150;11.070;2023-04-25T17:24:57;8.07;;;2.58;;
48522;SDS011;34315;50.150;11.070;2023-04-25T17:29:58;6.25;;;2.03;;
48522;SDS011;34315;50.150;11.070;2023-04-25T17:34:59;5.15;;;1.73;;
48522;SDS011;34315;50.150;11.070;2023-04-25T17:40:01;8.82;;;2.47;;
48522;SDS011;34315;50.150;11.070;2023-04-25T17:45:04;5.50;;;1.63;;
48522;SDS011;34315;50.150;11.070;2023-04-25T17:50:06;5.03;;;1.90;;
48522;SDS011;34315;50.150;11.070;2023-04-25T17:55:08;7.70;;;1.75;;
48522;SDS011;34315;50.150;11.070;2023-04-25T18:00:09;5.90;;;1.60;;
48522;SDS011;34315;50.150;11.070;2023-04-25T18:05:16;6.32;;;1.65;;
48522;SDS011;34315;50.150;11.070;2023-04-25T18:10:18;4.22;;;2.03;;
48522;SDS011;34315;50.150;11.070;2023-04-25T18:15:19;4.97;;;1.65;;
48522;SDS011;34315;50.150;11.070;2023-04-25T18:20:21;5.78;;;2.08;;
48522;SDS011;34315;50.150;11.070;2023-04-25T18:25:23;6.00;;;1.88;;
48522;SDS011;34315;50.150;11.070;2023-04-25T18:30:24;6.15;;;1.90;;
48522;SDS011;34315;50.150;11.070;2023-04-25T18:35:26;4.97;;;1.85;;
48522;SDS011;34315;50.150;11.070;2023-04-25T18:40:27;5.15;;;1.63;;
48522;SDS011;34315;50.150;11.070;2023-04-25T18:45:28;8.60;;;2.05;;
48522;SDS011;34315;50.150;11.070;2023-04-25T18:50:29;5.35;;;2.25;;
48522;SDS011;34315;50.150;11.070;2023-04-25T18:55:32;5.82;;;2.40;;
48522;SDS011;34315;50.150;11.070;2023-04-25T19:00:34;8.13;;;2.30;;
48522;SDS011;34315;50.150;11.070;2023-04-25T19:05:35;7.68;;;3.00;;
48522;SDS011;34315;50.150;11.070;2023-04-25T19:10:36;7.43;;;2.80;;
48522;SDS011;34315;50.150;11.070;2023-04-25T19:15:37;8.48;;;2.70;;
48522;SDS011;34315;50.150;11.070;2023-04-25T19:20:39;11.35;;;2.83;;
48522;SDS011;34315;50.150;11.070;2023-04-25T19:25:40;8.05;;;3.10;;
48522;SDS011;34315;50.150;11.070;2023-04-25T19:30:42;5.57;;;2.80;;
48522;SDS011;34315;50.150;11.070;2023-04-25T19:35:45;6.93;;;3.15;;
48522;SDS011;34315;50.150;11.070;2023-04-25T19:40:46;8.18;;;2.40;;
48522;SDS011;34315;50.150;11.070;2023-04-25T19:45:48;8.43;;;2.13;;
48522;SDS011;34315;50.150;11.070;2023-04-25T19:50:49;7.68;;;2.40;;
48522;SDS011;34315;50.150;11.070;2023-04-25T19:55:50;7.55;;;2.47;;
48522;SDS011;34315;50.150;11.070;2023-04-25T20:00:51;7.07;;;2.10;;
48522;SDS011;34315;50.150;11.070;2023-04-25T20:05:53;4.78;;;1.90;;
48522;SDS011;34315;50.150;11.070;2023-04-25T20:10:54;10.02;;;2.20;;
48522;SDS011;34315;50.150;11.070;2023-04-25T20:15:55;6.55;;;2.00;;
48522;SDS011;34315;50.150;11.070;2023-04-25T20:20:56;4.53;;;2.00;;
48522;SDS011;34315;50.150;11.070;2023-04-25T20:25:57;5.78;;;2.30;;
48522;SDS011;34315;50.150;11.070;2023-04-25T20:30:59;5.78;;;2.10;;
48522;SDS011;34315;50.150;11.070;2023-04-25T20:36:00;6.72;;;2.70;;
48522;SDS011;34315;50.150;11.070;2023-04-25T20:41:01;8.85;;;2.63;;
48522;SDS011;34315;50.150;11.070;2023-04-25T20:46:03;4.88;;;2.25;;
48522;SDS011;34315;50.150;11.070;2023-04-25T20:51:04;5.82;;;2.10;;
48522;SDS011;34315;50.150;11.070;2023-04-25T20:56:07;9.05;;;2.45;;
48522;SDS011;34315;50.150;11.070;2023-04-25T21:01:10;6.70;;;2.22;;
48522;SDS011;34315;50.150;11.070;2023-04-25T21:06:12;6.68;;;2.50;;
48522;SDS011;34315;50.150;11.070;2023-04-25T21:11:13;6.32;;;1.92;;
48522;SDS011;34315;50.150;11.070;2023-04-25T21:16:14;6.70;;;2.17;;
48522;SDS011;34315;50.150;11.070;2023-04-25T21:21:15;11.13;;;3.53;;
48522;SDS011;34315;50.150;11.070;2023-04-25T21:26:17;6.82;;;2.30;;
48522;SDS011;34315;50.150;11.070;2023-04-25T21:31:18;4.68;;;2.13;;
48522;SDS011;34315;50.150;11.070;2023-04-25T21:36:19;8.77;;;2.65;;
48522;SDS011;34315;50.150;11.070;2023-04-25T21:41:20;5.75;;;2.40;;
48522;SDS011;34315;50.150;11.070;2023-04-25T21:46:22;7.78;;;2.42;;
48522;SDS011;34315;50.150;11.070;2023-04-25T21:51:24;11.70;;;2.42;;
48522;SDS011;34315;50.150;11.070;2023-04-25T21:56:25;8.32;;;2.75;;
48522;SDS011;34315;50.150;11.070;2023-04-25T22:01:26;9.02;;;2.80;;
48522;SDS011;34315;50.150;11.070;2023-04-25T22:06:28;5.25;;;2.47;;
48522;SDS011;34315;50.150;11.070;2023-04-25T22:11:29;4.40;;;2.25;;
48522;SDS011;34315;50.150;11.070;2023-04-25T22:16:30;6.28;;;2.65;;
48522;SDS011;34315;50.150;11.070;2023-04-25T22:21:32;8.35;;;2.88;;
48522;SDS011;34315;50.150;11.070;2023-04-25T22:26:33;6.57;;;3.20;;
48522;SDS011;34315;50.150;11.070;2023-04-25T22:31:34;5.68;;;2.80;;
48522;SDS011;34315;50.150;11.070;2023-04-25T22:36:35;5.28;;;2.55;;
48522;SDS011;34315;50.150;11.070;2023-04-25T22:41:36;9.77;;;2.50;;
48522;SDS011;34315;50.150;11.070;2023-04-25T22:46:37;7.07;;;2.80;;
48522;SDS011;34315;50.150;11.070;2023-04-25T22:51:38;5.97;;;2.40;;
48522;SDS011;34315;50.150;11.070;2023-04-25T22:56:39;8.18;;;2.63;;
48522;SDS011;34315;50.150;11.070;2023-04-25T23:01:40;6.43;;;2.20;;
48522;SDS011;34315;50.150;11.070;2023-04-25T23:06:42;6.90;;;2.78;;
48522;SDS011;34315;50.150;11.070;2023-04-25T23:11:43;6.35;;;2.40;;
48522;SDS011;34315;50.150;11.070;2023-04-25T23:16:45;5.93;;;2.05;;
48522;SDS011;34315;50.150;11.070;2023-04-25T23:21:46;5.47;;;2.28;;
48522;SDS011;34315;50.150;11.070;2023-04-25T23:26:47;6.72;;;2.55;;
48522;SDS011;34315;50.150;11.070;2023-04-25T23:31:48;9.35;;;2.70;;
48522;SDS011;34315;50.150;11.070;2023-04-25T23:36:49;8.68;;;2.55;;
48522;SDS011;34315;50.150;11.070;2023-04-25T23:41:51;8.38;;;2.63;;
48522;SDS011;34315;50.150;11.070;2023-04-25T23:46:52;5.60;;;2.38;;
48522;SDS011;34315;50.150;11.070;2023-04-25T23:51:53;6.10;;;2.13;;
48522;SDS011;34315;50.150;11.070;2023-04-25T23:56:54;4.18;;;2.10;;
